»·PEaware :: N791WA O22-KCCR

N791WA :: O22-KCCR

FLIGHT INFORMATION

Flight Status: Arrived
Operator: Privately registered:
United States
More flights under this callsign
Pilot: Zane G. (31)
Aircraft: BEECH AIRCRAFT BARON
(BE58)
More flights by this aircraft type
Origin: O22 Columbia
United States
Destination: KCCR Buchanan
United States
More flights between these airports :: More routes between these airports
Route: +LIN V108 CCR
File this flight plan on PilotEdge
Remarks: / V /
Altitude:
(Current/Filed)
10,000ft
Speed:
(Current/Filed)
180kts
Departed: 26-May-12 09:12 AM
Arrived: 26-May-12 09:49 AM
Distance/Time
Traveled:
78nm/0:37
Distance/Time
To Go:
Arrived

Flight Plot

Page will automatically refresh every two minutes.

Flight plan parsing failed; only flown route is shown


Map Options




Map Legend


Flown Route
Filed Route
Departure Airport
Arrival Airport
Navaid (VOR, NDB)
Fix

Horizontal Profiles

Position Reports

Time Latitude Longitude Heading Altitude Ground
Speed
26-May-12 08:55 38.028631 -120.411439 99 2121ft 0kts
26-May-12 08:56 38.028700 -120.411417 292 2121ft 0kts
26-May-12 08:57 38.028700 -120.411417 292 2121ft 0kts
26-May-12 08:58 38.028700 -120.411417 292 2121ft 0kts
26-May-12 08:59 38.028700 -120.411417 292 2121ft 0kts
26-May-12 09:01 38.028729 -120.411502 292 2121ft 0kts
26-May-12 09:02 38.028729 -120.411502 292 2121ft 0kts
26-May-12 09:03 38.028729 -120.411502 292 2121ft 0kts
26-May-12 09:04 38.028729 -120.411502 292 2121ft 0kts
26-May-12 09:05 38.028729 -120.411502 292 2121ft 0kts
26-May-12 09:06 38.032123 -120.411777 11 2121ft 14kts
26-May-12 09:07 38.035737 -120.410752 333 2121ft 5kts
26-May-12 09:08 38.035748 -120.410758 324 2121ft 0kts
26-May-12 09:09 38.035748 -120.410759 324 2121ft 0kts
26-May-12 09:10 38.035748 -120.410759 324 2121ft 0kts
26-May-12 09:11 38.034030 -120.412318 191 2121ft 63kts
26-May-12 09:12 38.012318 -120.429389 278 2932ft 114kts
26-May-12 09:13 38.020078 -120.466476 283 3985ft 116kts
26-May-12 09:14 38.039656 -120.497992 280 4775ft 133kts
26-May-12 09:15 38.041068 -120.544183 267 5711ft 130kts
26-May-12 09:16 38.040560 -120.590454 272 6482ft 133kts
26-May-12 09:17 38.044302 -120.637805 274 7184ft 134kts
26-May-12 09:18 38.048257 -120.684760 274 7872ft 131kts
26-May-12 09:19 38.052351 -120.730759 274 8268ft 146kts
26-May-12 09:20 38.057310 -120.787219 274 8167ft 167kts
26-May-12 09:21 38.062494 -120.847187 274 8159ft 171kts
26-May-12 09:22 38.067713 -120.907706 274 8153ft 172kts
26-May-12 09:23 38.071326 -120.949648 274 8166ft 172kts
26-May-12 09:24 38.074587 -121.011525 266 8038ft 181kts
26-May-12 09:25 38.073565 -121.075798 269 8018ft 180kts
26-May-12 09:26 38.072692 -121.139594 268 8017ft 180kts
26-May-12 09:27 38.071911 -121.203003 268 8056ft 178kts
26-May-12 09:28 38.070983 -121.266455 268 8056ft 179kts
26-May-12 09:29 38.070033 -121.332631 268 8036ft 187kts
26-May-12 09:30 38.069134 -121.397892 268 8037ft 182kts
26-May-12 09:31 38.068779 -121.460816 267 8149ft 175kts
26-May-12 09:32 38.067789 -121.522818 266 8166ft 175kts
26-May-12 09:33 38.063520 -121.584738 262 8158ft 176kts
26-May-12 09:34 38.057709 -121.647628 262 8025ft 180kts
26-May-12 09:35 38.050101 -121.711220 263 7741ft 190kts
26-May-12 09:36 38.053393 -121.779437 281 7110ft 197kts
26-May-12 09:37 38.064447 -121.848098 282 6467ft 199kts
26-May-12 09:38 38.086778 -121.909448 311 5832ft 191kts
26-May-12 09:39 38.134642 -121.916551 13 5202ft 186kts
26-May-12 09:40 38.184707 -121.898335 13 4552ft 185kts
26-May-12 09:41 38.211910 -121.935429 266 3931ft 182kts
26-May-12 09:42 38.184923 -121.985722 181 3242ft 193kts
26-May-12 09:43 38.137814 -121.992577 205 3196ft 162kts
26-May-12 09:44 38.098876 -122.011076 205 2413ft 141kts
26-May-12 09:45 38.061664 -122.025659 197 1678ft 138kts
26-May-12 09:46 38.026093 -122.040804 196 1077ft 124kts
26-May-12 09:47 37.994686 -122.054312 202 102ft 104kts
26-May-12 09:48 37.985961 -122.061129 8 29ft 9kts

Navigation Log

Ident Type
Flight plan parsing failed, navigation log unavailable